Home > Products > Valid Products > MTR

000
SAUS45 KPIH 240152
MTRSNT
METAR KSNT 240151Z AUTO 00000KT 01/M04 A2997 RMK AO1 SLP145
T00111044





000
SAUS45 KPIH 240052
MTRSNT
METAR KSNT 240051Z AUTO 16005KT 02/M07 A2997 RMK AO1 SLP149
T00171067





000
SAUS45 KPIH 232352
MTRSNT
METAR KSNT 232351Z AUTO 18006KT 02/M05 A2996 RMK AO1 SLP143 60002
T00171050 10028 21017 53003





000
SAUS45 KPIH 232252
MTRSNT
METAR KSNT 232251Z AUTO VRB04KT 02/M06 A2996 RMK AO1 SLP142
T00171061





000
SAUS45 KPIH 232152
MTRSNT
METAR KSNT 232151Z AUTO 10005KT 02/M05 A2995 RMK AO1 SLP134
T00171050





000
SAUS45 KPIH 232052
MTRSNT
METAR KSNT 232051Z AUTO 12007KT 00/M04 A2995 RMK AO1 SLP135 P0002
60002 T00001044 53004





000
SAUS45 KPIH 231952
MTRSNT
METAR KSNT 231951Z AUTO 35004KT M01/M04 A2995 RMK AO1 SLP135
T10111044





000
SAUS45 KPIH 231852
MTRSNT
METAR KSNT 231851Z AUTO 13005KT 00/M07 A2994 RMK AO1 SLP125
T00001067





000
SAUS45 KPIH 231752
MTRSNT
METAR KSNT 231751Z AUTO 17007G15KT M01/M07 A2994 RMK AO1 SLP125
T10061067 11006 21100 50001





000
SAUS45 KPIH 231652
MTRSNT
METAR KSNT 231651Z AUTO 15006KT M02/M07 A2994 RMK AO1 SLP128
T10221072





000
SAUS45 KPIH 231552
MTRSNT
METAR KSNT 231551Z AUTO 13007KT M03/M07 A2994 RMK AO1 SLP129
T10281067





000
SAUS45 KPIH 231452
MTRSNT
METAR KSNT 231451Z AUTO 10003KT M05/M08 A2994 RMK AO1 SLP130
T10501078 51015





000
SAUS45 KPIH 231352
MTRSNT
METAR KSNT 231351Z AUTO 16004KT M07/M09 A2992 RMK AO1 SLP128
T10671089





000
SAUS45 KPIH 231252
MTRSNT
METAR KSNT 231251Z AUTO 17004KT M09/M11 A2990 RMK AO1 SLP126
T10891106





000
SAUS45 KPIH 231152
MTRSNT
METAR KSNT 231151Z AUTO 00000KT M08/M10 A2988 RMK AO1 SLP117 70033
T10781100 11017 21089 53007





000
SAUS45 KPIH 231052
MTRSNT
METAR KSNT 231051Z AUTO 19004KT M08/M10 A2987 RMK AO1 SLP112
T10831100





000
SAUS45 KPIH 230952
MTRSNT
METAR KSNT 230951Z AUTO 00000KT M06/M09 A2987 RMK AO1 SLP108
T10611089





000
SAUS45 KPIH 230852
MTRSNT
METAR KSNT 230851Z AUTO 00000KT M04/M08 A2986 RMK AO1 SLP099
T10441078 51016





000
SAUS45 KPIH 230752
MTRSNT
METAR KSNT 230751Z AUTO 34005KT M03/M07 A2986 RMK AO1 SLP097
T10331072





000
SAUS45 KPIH 230652
MTRSNT
METAR KSNT 230651Z AUTO 32008KT M02/M07 A2984 RMK AO1 SLP084
T10221072 400611022





000
SAUS45 KPIH 230552
MTRSNT
METAR KSNT 230551Z AUTO 33003KT M02/M05 A2980 RMK AO1 SLP071 60001
T10171050 10011 21017 51021





000
SAUS45 KPIH 230452
MTRSNT
METAR KSNT 230451Z AUTO 01006KT M01/M02 A2978 RMK AO1 SLP064
T10111022





000
SAUS45 KPIH 230352
MTRSNT
METAR KSNT 230351Z AUTO 00000KT M01/M02 A2976 RMK AO1 SLP050
T10061017





000
SAUS45 KPIH 230252
MTRSNT
METAR KSNT 230251Z AUTO 30004KT 00/M02 A2973 RMK AO1 SLP036 60001
T00001017 51010





000
SAUS45 KPIH 230152
MTRSNT
METAR KSNT 230151Z AUTO VRB03KT 01/M01 A2971 RMK AO1 SLP028 P0001
T00061011





000
SAUS45 KPIH 230052
MTRSNT
METAR KSNT 230051Z AUTO 31003KT 01/00 A2971 RMK AO1 SLP024 T00060000





000
SAUS45 KPIH 222352
MTRSNT
METAR KSNT 222351Z AUTO 00000KT 01/00 A2969 RMK AO1 SLP029 P0002
60019 T00110000 10022 20006 56004





000
SAUS45 KPIH 222252
MTRSNT
METAR KSNT 222251Z AUTO 13003KT 01/00 A2970 RMK AO1 SLP029 P0001
T00110000





000
SAUS45 KPIH 222152
MTRSNT
METAR KSNT 222151Z AUTO 00000KT 01/00 A2970 RMK AO1 SLP032 P0003
T00060000





000
SAUS45 KPIH 222052
MTRSNT
METAR KSNT 222051Z AUTO 33003KT 01/00 A2971 RMK AO1 SLP032 P0001
60013 T00110000 58006





000
SAUS45 KPIH 221952
MTRSNT
METAR KSNT 221951Z AUTO VRB04KT 01/00 A2973 RMK AO1 SLP034 P0008
T00110000





000
SAUS45 KPIH 221852
MTRSNT
METAR KSNT 221851Z AUTO 15008KT 02/01 A2971 RMK AO1 SLP025 P0004
T00170011





000
SAUS45 KPIH 221752
MTRSNT
METAR KSNT 221751Z AUTO 00000KT 02/01 A2973 RMK AO1 SLP031 P0003
60013 T00170011 10061 21006 58016





000
SAUS45 KPIH 221652
MTRSNT
METAR KSNT 221651Z AUTO 00000KT 01/01 A2975 RMK AO1 SLP037 P0005
T00110006





000
SAUS45 KPIH 221552
MTRSNT
METAR KSNT 221551Z AUTO 35008KT 02/01 A2977 RMK AO1 SLP042 P0002
T00220011





000
SAUS45 KPIH 221452
MTRSNT
METAR KSNT 221451Z AUTO 15006KT 03/02 A2979 RMK AO1 SLP030 P0002
60003 T00330017 58005





000
SAUS45 KPIH 221352
MTRSNT
METAR KSNT 221351Z AUTO 15005KT 03/02 A2980 RMK AO1 SLP033 P0001
T00330017





000
SAUS45 KPIH 221252
MTRSNT
METAR KSNT 221251Z AUTO 17007KT 05/01 A2979 RMK AO1 SLP025 T00500006





000
SAUS45 KPIH 221152
MTRSNT
METAR KSNT 221151Z AUTO 00000KT 00/M03 A2980 RMK AO1 SLP042
T00001033 10044 21011 56019





000
SAUS45 KPIH 221052
MTRSNT
METAR KSNT 221051Z AUTO 00000KT 01/M03 A2983 RMK AO1 SLP050
T00061028





000
SAUS45 KPIH 220952
MTRSNT
METAR KSNT 220951Z AUTO 00000KT 00/M03 A2985 RMK AO1 SLP053
T00001033





000
SAUS45 KPIH 220852
MTRSNT
METAR KSNT 220851Z AUTO 00000KT 01/M03 A2987 RMK AO1 SLP058
T00111033 58023





000
SAUS45 KPIH 220752
MTRSNT
METAR KSNT 220751Z AUTO 00000KT 03/M03 A2990 RMK AO1 SLP069
T00281033





000
SAUS45 KPIH 220652
MTRSNT
METAR KSNT 220651Z AUTO 00000KT 03/M03 A2993 RMK AO1 SLP080
T00331033 401391078





000
SAUS45 KPIH 220552
MTRSNT
METAR KSNT 220551Z AUTO 00000KT 03/M03 A2996 RMK AO1 SLP100
T00331033 10128 20028 58010





000
SAUS45 KPIH 220452
MTRSNT
METAR KSNT 220451Z AUTO 15004KT 06/M04 A2998 RMK AO1 SLP111
T00561044





000
SAUS45 KPIH 220353
MTRSNT
METAR KSNT 220351Z AUTO 13004KT 06/M04 A2999 RMK AO1 SLP120
T00561044





000
SAUS45 KPIH 220252
MTRSNT
METAR KSNT 220251Z AUTO 20008KT 11/M07 A2999 RMK AO1 SLP113
T01061067 56011





000
SAUS45 KPIH 220152
MTRSNT
METAR KSNT 220151Z AUTO VRB06KT 12/M08 A3000 RMK AO1 SLP126
T01171083





000
SAUS45 KPIH 220052
MTRSNT
METAR KSNT 220051Z AUTO 16006KT 12/M09 A3000 RMK AO1 SLP125
T01221094





000
SAUS45 KPIH 212352
MTRSNT
METAR KSNT 212351Z AUTO 15008KT 12/M10 A3003 RMK AO1 SLP136
T01221100 10139 20067 58017





000
SAUS45 KPIH 212252
MTRSNT
METAR KSNT 212251Z AUTO 16007KT 12/M11 A3005 RMK AO1 SLP139
T01171106





000
SAUS45 KPIH 212152
MTRSNT
METAR KSNT 212151Z AUTO 22009G15KT 180V260 13/M12 A3008 RMK AO1
SLP147 T01281117





000
SAUS45 KPIH 212052
MTRSNT
METAR KSNT 212051Z AUTO VRB03G16KT 14/M13 A3009 RMK AO1 SLP149
T01391128 56021





000
SAUS45 KPIH 211952
MTRSNT
METAR KSNT 211951Z AUTO 19011G18KT 12/M12 A3012 RMK AO1 SLP160
T01221122





000
SAUS45 KPIH 211852
MTRSNT
METAR KSNT 211851Z AUTO 12007KT 080V160 12/M10 A3013 RMK AO1 SLP166
T01171100





000
SAUS45 KPIH 211752
MTRSNT
METAR KSNT 211751Z AUTO 33005KT 07/M06 A3017 RMK AO1 SLP187
T00671061 10067 21078 56024





000
SAUS45 KPIH 211652
MTRSNT
METAR KSNT 211651Z AUTO 36004KT 03/M06 A3019 RMK AO1 SLP200
T00331056





000
SAUS45 KPIH 211552
MTRSNT
METAR KSNT 211551Z AUTO 00000KT 01/M06 A3023 RMK AO1 SLP219
T00061061





000
SAUS45 KPIH 211452
MTRSNT
METAR KSNT 211451Z AUTO 00000KT M01/M06 A3026 RMK AO1 SLP226
T10111056 56005





000
SAUS45 KPIH 211352
MTRSNT
METAR KSNT 211351Z AUTO 00000KT M05/M07 A3026 RMK AO1 SLP223
T10501072





000
SAUS45 KPIH 211252
MTRSNT
METAR KSNT 211251Z AUTO 00000KT M06/M08 A3027 RMK AO1 SLP228
T10611083





000
SAUS45 KPIH 211152
MTRSNT
METAR KSNT 211151Z AUTO 00000KT M06/M08 A3027 RMK AO1 SLP227
T10611083 11011 21061 57007





000
SAUS45 KPIH 211052
MTRSNT
METAR KSNT 211051Z AUTO 15003KT M04/M07 A3028 RMK AO1 SLP224
T10441072





000
SAUS45 KPIH 210952
MTRSNT
METAR KSNT 210951Z AUTO 00000KT M04/M07 A3029 RMK AO1 SLP227
T10391067





000
SAUS45 KPIH 210852
MTRSNT
METAR KSNT 210851Z AUTO 00000KT M04/M07 A3030 RMK AO1 SLP233
T10391067 52003





000
SAUS45 KPIH 210752
MTRSNT
METAR KSNT 210751Z AUTO 19003KT M03/M07 A3029 RMK AO1 SLP229
T10331072





000
SAUS45 KPIH 210652
MTRSNT
METAR KSNT 210651Z AUTO 16003KT M03/M06 A3030 RMK AO1 SLP232
T10281061 401111044





000
SAUS45 KPIH 210552
MTRSNT
METAR KSNT 210551Z AUTO 15004KT M02/M06 A3029 RMK AO1 SLP228
T10171056 10106 21017 51007





000
SAUS45 KPIH 210452
MTRSNT
METAR KSNT 210451Z AUTO 00000KT M01/M06 A3028 RMK AO1 SLP227
T10061061





000
SAUS45 KPIH 210352
MTRSNT
METAR KSNT 210351Z AUTO 16003KT 01/M06 A3028 RMK AO1 SLP226
T00061061





000
SAUS45 KPIH 210252
MTRSNT
METAR KSNT 210251Z AUTO 19004KT 03/M07 A3026 RMK AO1 SLP220
T00331072 53010





    US Dept of Commerce
    National Oceanic and Atmospheric Administration
    National Weather Service
    1325 East West Highway
    Silver Spring, MD 20910
    Page Author: NWS Internet Services Team
Disclaimer
Information Quality
Credits
Glossary
Privacy Policy
Freedom of Information Act (FOIA)
About Us
Career Opportunities